Stations météo

Publicité
Bourg-St-Maurice, France (7497): Température de l'air & dewpoint: 11.06.2019 16:00:00 - 17.06.2019 16:00:00 (CEST)Bourg-St-Maurice, France (7497): Température de l'air -20cm & Température de l'air -100cm: 11.06.2019 16:00:00 - 17.06.2019 16:00:00 (CEST)Bourg-St-Maurice, France (7497): Vitesse du vent & gusts: 11.06.2019 16:00:00 - 17.06.2019 16:00:00 (CEST)Bourg-St-Maurice, France (7497): Direction du vent: 11.06.2019 16:00:00 - 17.06.2019 16:00:00 (CEST)Bourg-St-Maurice, France (7497): Ensoleillement: 11.06.2019 16:00:00 - 17.06.2019 16:00:00 (CEST)Bourg-St-Maurice, France (7497): Quantités de précipitations: 11.06.2019 16:00:00 - 17.06.2019 16:00:00 (CEST)
Date & Time tt [°C] td [°C] tt -20cm [°C] tt -100cm [°C] ff [km/h] ff [knt] fx [km/h] fx [knt] dd sd [min] rr [mm]
17.06.2019 16:00:00 28,2 9,9 21,6 16,9 8 5 24 13 S 60 0,0
17.06.2019 15:00:00 27,3 10,5 21,2 16,9 11 6 29 16 S 60 0,0
17.06.2019 14:00:00 27,0 11,5 20,8 16,9 11 6 28 15 S 60 0,0
17.06.2019 13:00:00 25,5 10,1 20,4 16,9 8 5 21 11 S 60 0,0
17.06.2019 12:00:00 23,6 9,6 20,1 16,9 8 4 16 9 S 60 0,0
17.06.2019 11:00:00 21,0 9,6 20,1 16,9 4 2 11 6 S 60 0,0
17.06.2019 10:00:00 18,3 8,8 20,2 16,9 4 2 9 5 S 60 0,0
17.06.2019 09:00:00 16,6 7,5 20,3 16,9 3 1 8 5 ESE 60 0,0
17.06.2019 08:00:00 13,8 8,4 20,5 16,9 4 2 8 4 NNE 60 0,0
17.06.2019 07:00:00 10,6 8,4 20,7 16,9 0 0 6 4 N 8 0,0
17.06.2019 06:00:00 10,5 8,6 20,9 16,9 3 2 7 4 NW 0 0,0
17.06.2019 05:00:00 11,3 9,2 21,1 16,8 5 3 7 4 NW 0 0,0
17.06.2019 04:00:00 11,2 9,3 21,3 16,8 2 1 4 2 NNW 0 0,0
17.06.2019 03:00:00 12,0 9,6 21,5 16,8 0 0 4 2 N 0 0,0
17.06.2019 02:00:00 12,8 9,8 21,7 16,8 3 1 5 3 NNW 0 0,0
17.06.2019 01:00:00 14,2 10,2 21,9 16,8 3 1 10 5 N 0 0,0
17.06.2019 00:00:00 15,1 10,1 22,0 16,8 0 0 11 6 N 0 0,0
16.06.2019 23:00:00 15,5 10,3 22,2 16,8 0 0 11 6 N 0 0,0
16.06.2019 22:00:00 16,4 10,5 22,2 16,8 5 3 11 6 WNW 0 0,0
16.06.2019 21:00:00 18,2 10,8 22,3 16,8 5 3 10 5 W 0 0,0
16.06.2019 20:00:00 20,7 10,8 22,2 16,8 5 3 11 6 W 36 0,0
16.06.2019 19:00:00 23,8 11,1 22,1 16,8 4 2 11 6 S 60 0,0
16.06.2019 18:00:00 24,6 10,5 21,8 16,8 4 2 26 14 SSW 60 0,0
16.06.2019 17:00:00 24,8 10,3 21,5 16,8 9 5 21 12 SSE 60 0,0
16.06.2019 16:00:00 24,8 9,1 21,1 16,8 8 5 19 11 S 60 0,0
16.06.2019 15:00:00 24,3 9,1 20,6 16,8 8 4 18 10 SSW 60 0,0
16.06.2019 14:00:00 23,3 8,6 20,2 16,8 7 4 16 9 S 60 0,0
16.06.2019 13:00:00 21,6 7,0 19,8 16,8 6 4 15 8 S 60 0,0
16.06.2019 12:00:00 19,9 8,6 19,6 16,7 6 3 13 7 S 60 0,0
16.06.2019 11:00:00 17,5 9,1 19,6 16,7 2 1 9 5 S 60 0,0
16.06.2019 10:00:00 15,1 10,5 19,6 16,7 4 2 10 5 S 52 0,0
16.06.2019 09:00:00 13,2 10,4 19,7 16,7 4 2 8 4 S 16 0,0
16.06.2019 08:00:00 11,9 10,8 19,8 16,7 0 0 4 2 N 0 0,0
16.06.2019 07:00:00 11,3 10,4 20,0 16,7 0 0 4 2 N 0 0,2
16.06.2019 06:00:00 11,4 10,6 20,1 16,7 0 0 3 1 N 0 0,0
16.06.2019 05:00:00 11,4 10,3 20,3 16,7 0 0 6 3 N 0 0,2
16.06.2019 04:00:00 11,5 10,2 20,5 16,7 3 1 7 4 SW 0 0,0
16.06.2019 03:00:00 11,5 10,4 20,6 16,7 3 1 8 5 SW 0 0,0
16.06.2019 02:00:00 11,6 10,8 20,8 16,7 4 2 9 5 SSW 0 0,0
16.06.2019 01:00:00 11,8 10,9 20,9 16,6 3 2 8 5 SW 0 0,0
16.06.2019 00:00:00 11,9 11,3 21,1 16,6 3 1 7 4 SSW 0 0,0
15.06.2019 23:00:00 12,3 11,2 21,3 16,6 3 1 8 4 SSW 0 0,0
15.06.2019 22:00:00 12,9 11,5 21,4 16,6 3 2 9 5 W 0 0,0
15.06.2019 21:00:00 13,2 11,4 21,5 16,6 4 2 8 4 SSW 3 0,0
15.06.2019 20:00:00 13,8 11,5 21,5 16,6 4 2 24 13 SW 4 0,2
15.06.2019 19:00:00 14,1 12,0 21,5 16,6 6 4 27 15 SW 0 1,8
15.06.2019 18:00:00 16,5 11,4 21,5 16,6 5 3 44 24 N 0 0,6
15.06.2019 17:00:00 22,1 10,9 21,2 16,6 20 11 45 25 SSW 2 0,0
15.06.2019 16:00:00 25,8 10,4 20,9 16,6 4 2 16 8 SSW 21 0,0
15.06.2019 15:00:00 26,8 8,7 20,5 16,6 3 2 13 7 SSE 60 0,0
15.06.2019 14:00:00 25,3 10,7 20,2 16,6 3 2 12 7 WSW 39 0,0
15.06.2019 13:00:00 23,0 11,4 19,9 16,5 4 2 13 7 S 20 0,0
15.06.2019 12:00:00 22,7 11,7 - - 5 3 - - SW - -
15.06.2019 11:00:00 - - - - - - - - - - -
15.06.2019 10:00:00 - - - - - - - - - - -
15.06.2019 09:00:00 16,4 12,4 19,7 16,5 3 1 8 4 S 0 0,0
15.06.2019 08:00:00 15,5 12,1 19,8 16,5 0 0 5 3 N 0 0,0
15.06.2019 07:00:00 14,7 11,3 19,9 16,5 4 2 6 4 N 0 0,0
15.06.2019 06:00:00 14,5 11,3 20,0 16,5 5 3 8 5 WNW 0 0,0
15.06.2019 05:00:00 15,2 11,4 20,1 16,5 3 2 11 6 WNW 0 0,0
15.06.2019 04:00:00 16,3 10,8 20,2 16,5 5 3 18 10 SSW 0 0,0
15.06.2019 03:00:00 16,7 9,9 20,4 16,5 10 5 24 13 WSW 0 0,0
15.06.2019 02:00:00 20,0 7,0 20,5 16,5 8 5 26 14 N 0 0,0
15.06.2019 01:00:00 21,6 6,7 20,5 16,5 15 8 35 19 NNW 0 0,0
15.06.2019 00:00:00 21,3 6,8 20,7 16,5 19 10 55 30 NNE 0 0,0
14.06.2019 23:00:00 21,2 6,7 20,7 16,4 24 13 50 27 NNE 0 0,0
14.06.2019 22:00:00 21,7 6,0 20,8 16,4 11 6 26 14 NE 0 0,0
14.06.2019 21:00:00 22,6 5,5 20,8 16,5 13 7 49 26 ENE 0 0,0
14.06.2019 20:00:00 23,6 5,0 20,8 16,4 19 10 48 26 NNE 0 0,0
14.06.2019 19:00:00 24,7 5,5 20,7 16,4 20 11 46 25 NE 0 0,0
14.06.2019 18:00:00 26,4 6,4 20,5 16,4 22 12 49 27 NE 34 0,0
14.06.2019 17:00:00 26,9 6,8 20,3 16,4 23 12 57 31 NE 54 0,0
14.06.2019 16:00:00 26,7 7,2 20,1 16,4 24 13 55 30 NNE 54 0,0
14.06.2019 15:00:00 27,2 7,6 19,8 16,4 20 11 49 26 NE 30 0,0
14.06.2019 14:00:00 25,1 7,7 19,7 16,4 18 10 49 26 NE 16 0,0
14.06.2019 13:00:00 22,9 8,6 19,6 16,4 16 8 41 22 NNE 25 0,0
14.06.2019 12:00:00 18,1 8,6 19,6 16,4 5 3 31 17 NW 0 0,0
14.06.2019 11:00:00 20,2 9,1 - - - - - - - 19 0,0
14.06.2019 10:00:00 18,3 9,1 19,6 16,4 3 1 - - SSE 2 0,0
14.06.2019 09:00:00 19,3 9,5 19,7 16,4 13 7 - - S 3 0,0
14.06.2019 08:00:00 - - - - - - - - - - -
14.06.2019 07:00:00 19,4 4,3 20,0 16,4 7 4 39 21 N 0 0,0
14.06.2019 06:00:00 16,5 7,2 20,1 16,4 3 2 25 13 S 0 0,0
14.06.2019 05:00:00 18,4 5,2 20,2 16,4 4 2 37 20 SSE 0 0,0
14.06.2019 04:00:00 17,5 5,1 20,4 16,3 7 4 24 13 NNW 0 0,0
14.06.2019 03:00:00 16,8 5,1 20,5 16,4 8 4 22 12 WNW 0 0,0
14.06.2019 02:00:00 19,5 4,4 20,7 16,4 18 10 51 28 ENE 0 0,0
14.06.2019 01:00:00 18,7 5,2 20,8 16,4 3 2 39 21 S 0 0,0
14.06.2019 00:00:00 19,4 4,3 21,0 16,4 13 7 40 22 N 0 0,0
13.06.2019 23:00:00 18,6 5,8 21,0 16,4 8 5 27 14 ENE 0 0,0
13.06.2019 22:00:00 17,8 6,9 21,1 16,4 6 3 14 8 WNW 0 0,0
13.06.2019 21:00:00 18,7 7,5 21,1 16,4 4 2 13 7 WNW 4 0,0
13.06.2019 20:00:00 20,7 7,7 21,0 16,4 6 3 12 7 W 25 0,0
13.06.2019 19:00:00 24,4 5,2 20,8 16,4 6 3 23 12 SW 58 0,0
13.06.2019 18:00:00 25,0 3,6 20,6 16,4 8 4 25 13 S 60 0,0
13.06.2019 17:00:00 25,7 4,7 20,2 16,4 9 5 26 14 S 60 0,0
13.06.2019 16:00:00 25,2 3,8 19,7 16,4 11 6 24 13 S 60 0,0
13.06.2019 15:00:00 24,5 3,2 19,3 16,4 6 3 19 10 SSW 60 0,0
13.06.2019 14:00:00 23,6 2,4 18,9 16,4 8 5 17 9 SSW 60 0,0
13.06.2019 13:00:00 21,8 4,8 18,4 16,4 8 4 17 9 S 60 0,0
13.06.2019 12:00:00 20,0 5,2 18,3 16,4 5 3 15 8 S 60 0,0
13.06.2019 11:00:00 18,0 6,2 18,2 16,4 4 2 10 5 S 60 0,0
13.06.2019 10:00:00 16,3 7,5 18,3 16,4 4 2 11 6 SSE 60 0,0
13.06.2019 09:00:00 14,9 7,4 18,3 16,4 3 1 8 4 E 60 0,0
13.06.2019 08:00:00 12,8 8,3 18,5 16,4 2 1 7 4 ENE 40 0,0
13.06.2019 07:00:00 9,9 7,8 18,6 16,4 0 0 3 1 N 0 0,0
13.06.2019 06:00:00 9,8 7,9 18,8 16,4 0 0 6 3 N 0 0,0
13.06.2019 05:00:00 10,0 8,3 19,0 16,4 2 1 5 3 SW 0 0,0
13.06.2019 04:00:00 11,1 8,5 19,1 16,4 0 0 4 2 N 0 0,0
13.06.2019 03:00:00 11,2 8,6 19,2 16,4 3 1 6 4 W 0 0,0
13.06.2019 02:00:00 12,3 8,4 19,4 16,4 4 2 9 5 WNW 0 0,0
13.06.2019 01:00:00 12,9 8,6 19,5 16,4 4 2 8 4 WNW 0 0,0
13.06.2019 00:00:00 13,5 8,8 19,6 16,4 4 2 11 6 W 0 0,0
12.06.2019 23:00:00 14,2 9,0 19,7 16,5 4 2 11 6 W 0 0,0
12.06.2019 22:00:00 14,8 9,2 19,8 16,5 4 2 10 6 W 0 0,0
12.06.2019 21:00:00 16,1 8,3 19,8 16,5 7 4 14 8 WNW 0 0,0
12.06.2019 20:00:00 18,1 8,9 19,7 16,5 5 3 23 12 SSE 0 0,0
12.06.2019 19:00:00 19,4 7,8 19,5 16,5 6 4 19 11 E 4 0,0
12.06.2019 18:00:00 20,7 8,0 19,2 16,5 8 4 26 14 S 46 0,0
12.06.2019 17:00:00 21,7 8,6 18,9 16,5 10 5 24 13 SSE 60 0,0
12.06.2019 16:00:00 21,4 9,9 18,4 16,5 9 5 21 11 SSW 60 0,0
12.06.2019 15:00:00 20,5 9,1 17,9 16,5 7 4 16 8 S 60 0,0
12.06.2019 14:00:00 19,1 8,7 17,5 16,5 6 3 15 8 S 60 0,0
12.06.2019 13:00:00 17,7 8,8 17,1 16,5 8 4 15 8 SSE 60 0,0
12.06.2019 12:00:00 16,1 8,1 17,0 16,5 4 2 11 6 ESE 60 0,0
12.06.2019 11:00:00 13,5 8,1 16,9 16,6 5 3 12 7 ENE 43 0,0
12.06.2019 10:00:00 10,4 7,3 17,0 16,6 4 2 10 5 WSW 6 0,0
12.06.2019 09:00:00 9,0 7,1 17,1 16,6 6 3 14 7 SSW 0 0,0
12.06.2019 08:00:00 8,6 7,5 17,2 16,6 7 4 18 10 SSW 0 0,2
12.06.2019 07:00:00 9,0 7,8 17,3 16,6 6 4 20 11 SW 0 0,2
12.06.2019 06:00:00 10,0 8,8 17,4 16,6 3 1 18 10 E 0 0,2
12.06.2019 05:00:00 9,9 9,1 17,5 16,6 5 3 14 8 WSW 0 0,0
12.06.2019 04:00:00 10,0 9,1 17,6 16,6 6 4 14 8 SSW 0 0,0
12.06.2019 03:00:00 10,2 9,1 17,7 16,6 3 2 12 6 SW 0 0,0
12.06.2019 02:00:00 10,4 9,2 17,8 16,7 5 3 16 9 SW 0 0,0
12.06.2019 01:00:00 10,8 9,7 17,9 16,7 4 2 8 4 SSW 0 0,0
12.06.2019 00:00:00 11,1 9,7 18,0 16,7 0 0 10 5 N 0 0,0
11.06.2019 23:00:00 11,4 10,0 18,0 16,7 3 1 12 6 SSW 0 0,0
11.06.2019 22:00:00 11,8 9,9 18,1 16,7 3 1 14 8 E 0 0,0
11.06.2019 21:00:00 12,5 9,9 18,1 16,7 3 2 10 6 SW 0 0,0
11.06.2019 20:00:00 13,4 10,4 18,0 16,7 6 3 15 8 SW 0 0,0
11.06.2019 19:00:00 14,7 11,8 18,0 16,7 4 2 10 5 S 0 0,0
11.06.2019 18:00:00 14,5 11,6 17,9 16,7 2 1 9 5 W 0 0,0
11.06.2019 17:00:00 13,8 12,0 17,9 16,7 5 3 10 5 NE 0 0,8
11.06.2019 16:00:00 14,3 10,9 17,8 16,8 5 3 11 6 ENE 0 0,2

tt = Température de l'air
td = dewpoint
tt -20cm = Température de l'air -20cm
tt -100cm = Température de l'air -100cm
ff = Vitesse du vent
fx = gusts
dd = Direction du vent
sd = Ensoleillement
rr = Quantités de précipitations

stations d'obs. à proximité